sensor_id;sensor_type;location;lat;lon;timestamp;temperature;humidity
21602;DHT22;10963;50.934;4.668;2023-04-25T00:00:58;10.20;99.90
21602;DHT22;10963;50.934;4.668;2023-04-25T00:03:23;10.20;99.90
21602;DHT22;10963;50.934;4.668;2023-04-25T00:05:53;10.20;99.90
21602;DHT22;10963;50.934;4.668;2023-04-25T00:08:22;10.30;99.90
21602;DHT22;10963;50.934;4.668;2023-04-25T00:10:50;10.30;99.90
21602;DHT22;10963;50.934;4.668;2023-04-25T00:13:16;10.20;99.90
21602;DHT22;10963;50.934;4.668;2023-04-25T00:15:42;10.20;99.90
21602;DHT22;10963;50.934;4.668;2023-04-25T00:18:08;10.30;99.90
21602;DHT22;10963;50.934;4.668;2023-04-25T00:20:35;10.30;99.90
21602;DHT22;10963;50.934;4.668;2023-04-25T00:23:05;10.30;99.90
21602;DHT22;10963;50.934;4.668;2023-04-25T00:25:31;10.20;99.90
21602;DHT22;10963;50.934;4.668;2023-04-25T00:28:01;10.20;99.90
21602;DHT22;10963;50.934;4.668;2023-04-25T00:30:27;10.30;99.90
21602;DHT22;10963;50.934;4.668;2023-04-25T00:32:55;10.30;99.90
21602;DHT22;10963;50.934;4.668;2023-04-25T00:35:23;10.40;99.90
21602;DHT22;10963;50.934;4.668;2023-04-25T00:37:51;10.30;99.90
21602;DHT22;10963;50.934;4.668;2023-04-25T00:40:17;10.30;99.90
21602;DHT22;10963;50.934;4.668;2023-04-25T00:42:43;10.20;99.90
21602;DHT22;10963;50.934;4.668;2023-04-25T00:45:13;10.20;99.90
21602;DHT22;10963;50.934;4.668;2023-04-25T00:47:45;10.20;99.90
21602;DHT22;10963;50.934;4.668;2023-04-25T00:50:11;10.10;99.90
21602;DHT22;10963;50.934;4.668;2023-04-25T00:52:39;10.10;99.90
21602;DHT22;10963;50.934;4.668;2023-04-25T00:55:06;10.10;99.90
21602;DHT22;10963;50.934;4.668;2023-04-25T00:57:32;10.10;99.90
21602;DHT22;10963;50.934;4.668;2023-04-25T00:59:59;10.20;99.90
21602;DHT22;10963;50.934;4.668;2023-04-25T01:02:25;10.20;99.90
21602;DHT22;10963;50.934;4.668;2023-04-25T01:04:57;10.30;99.90
21602;DHT22;10963;50.934;4.668;2023-04-25T01:07:26;10.30;99.90
21602;DHT22;10963;50.934;4.668;2023-04-25T01:09:55;10.20;99.90
21602;DHT22;10963;50.934;4.668;2023-04-25T01:12:20;10.30;99.90
21602;DHT22;10963;50.934;4.668;2023-04-25T01:14:46;10.30;99.90
21602;DHT22;10963;50.934;4.668;2023-04-25T01:17:15;10.30;99.90
21602;DHT22;10963;50.934;4.668;2023-04-25T01:19:46;10.30;99.90
21602;DHT22;10963;50.934;4.668;2023-04-25T01:22:13;10.20;99.90
21602;DHT22;10963;50.934;4.668;2023-04-25T01:24:40;10.20;99.90
21602;DHT22;10963;50.934;4.668;2023-04-25T01:27:10;10.10;99.90
21602;DHT22;10963;50.934;4.668;2023-04-25T01:29:37;10.20;99.90
21602;DHT22;10963;50.934;4.668;2023-04-25T01:32:03;10.10;99.90
21602;DHT22;10963;50.934;4.668;2023-04-25T01:34:30;10.00;99.90
21602;DHT22;10963;50.934;4.668;2023-04-25T01:36:59;10.00;99.90
21602;DHT22;10963;50.934;4.668;2023-04-25T01:39:25;10.10;99.90
21602;DHT22;10963;50.934;4.668;2023-04-25T01:41:51;10.10;99.90
21602;DHT22;10963;50.934;4.668;2023-04-25T01:44:19;10.10;99.90
21602;DHT22;10963;50.934;4.668;2023-04-25T01:46:45;10.00;99.90
21602;DHT22;10963;50.934;4.668;2023-04-25T01:49:12;9.90;99.90
21602;DHT22;10963;50.934;4.668;2023-04-25T01:51:38;9.90;99.90
21602;DHT22;10963;50.934;4.668;2023-04-25T01:54:04;9.80;99.90
21602;DHT22;10963;50.934;4.668;2023-04-25T01:56:37;9.80;99.90
21602;DHT22;10963;50.934;4.668;2023-04-25T01:59:08;9.80;99.90
21602;DHT22;10963;50.934;4.668;2023-04-25T02:01:34;9.80;99.90
21602;DHT22;10963;50.934;4.668;2023-04-25T02:03:59;9.70;99.90
21602;DHT22;10963;50.934;4.668;2023-04-25T02:06:28;9.70;99.90
21602;DHT22;10963;50.934;4.668;2023-04-25T02:08:53;9.70;99.90
21602;DHT22;10963;50.934;4.668;2023-04-25T02:11:19;9.50;99.90
21602;DHT22;10963;50.934;4.668;2023-04-25T02:13:45;9.50;99.90
21602;DHT22;10963;50.934;4.668;2023-04-25T02:16:10;9.50;99.90
21602;DHT22;10963;50.934;4.668;2023-04-25T02:18:36;9.50;99.90
21602;DHT22;10963;50.934;4.668;2023-04-25T02:21:03;9.50;99.90
21602;DHT22;10963;50.934;4.668;2023-04-25T02:23:28;9.60;99.90
21602;DHT22;10963;50.934;4.668;2023-04-25T02:25:54;9.60;99.90
21602;DHT22;10963;50.934;4.668;2023-04-25T02:28:22;9.60;99.90
21602;DHT22;10963;50.934;4.668;2023-04-25T02:30:53;9.60;99.90
21602;DHT22;10963;50.934;4.668;2023-04-25T02:33:21;9.70;99.90
21602;DHT22;10963;50.934;4.668;2023-04-25T02:35:47;9.80;99.90
21602;DHT22;10963;50.934;4.668;2023-04-25T02:38:13;9.70;99.90
21602;DHT22;10963;50.934;4.668;2023-04-25T02:40:38;9.70;99.90
21602;DHT22;10963;50.934;4.668;2023-04-25T02:43:04;9.60;99.90
21602;DHT22;10963;50.934;4.668;2023-04-25T02:45:30;9.60;99.90
21602;DHT22;10963;50.934;4.668;2023-04-25T02:47:58;9.80;99.90
21602;DHT22;10963;50.934;4.668;2023-04-25T02:50:23;9.80;99.90
21602;DHT22;10963;50.934;4.668;2023-04-25T02:52:49;9.80;99.90
21602;DHT22;10963;50.934;4.668;2023-04-25T02:55:15;9.70;99.90
21602;DHT22;10963;50.934;4.668;2023-04-25T02:57:40;9.70;99.90
21602;DHT22;10963;50.934;4.668;2023-04-25T03:00:09;9.80;99.90
21602;DHT22;10963;50.934;4.668;2023-04-25T03:02:37;9.80;99.90
21602;DHT22;10963;50.934;4.668;2023-04-25T03:05:02;9.80;99.90
21602;DHT22;10963;50.934;4.668;2023-04-25T03:07:28;9.90;99.90
21602;DHT22;10963;50.934;4.668;2023-04-25T03:09:54;9.80;99.90
21602;DHT22;10963;50.934;4.668;2023-04-25T03:12:21;9.80;99.90
21602;DHT22;10963;50.934;4.668;2023-04-25T03:14:51;9.70;99.90
21602;DHT22;10963;50.934;4.668;2023-04-25T03:17:19;9.80;99.90
21602;DHT22;10963;50.934;4.668;2023-04-25T03:19:47;9.60;99.90
21602;DHT22;10963;50.934;4.668;2023-04-25T03:22:15;9.60;99.90
21602;DHT22;10963;50.934;4.668;2023-04-25T03:24:41;9.70;99.90
21602;DHT22;10963;50.934;4.668;2023-04-25T03:27:09;9.70;99.90
21602;DHT22;10963;50.934;4.668;2023-04-25T03:29:37;9.70;99.90
21602;DHT22;10963;50.934;4.668;2023-04-25T03:32:02;9.60;99.90
21602;DHT22;10963;50.934;4.668;2023-04-25T03:34:28;9.40;99.90
21602;DHT22;10963;50.934;4.668;2023-04-25T03:36:54;9.20;99.90
21602;DHT22;10963;50.934;4.668;2023-04-25T03:39:20;9.00;99.90
21602;DHT22;10963;50.934;4.668;2023-04-25T03:41:46;8.80;99.90
21602;DHT22;10963;50.934;4.668;2023-04-25T03:44:14;8.70;99.90
21602;DHT22;10963;50.934;4.668;2023-04-25T03:46:40;8.70;99.90
21602;DHT22;10963;50.934;4.668;2023-04-25T03:49:10;8.60;99.90
21602;DHT22;10963;50.934;4.668;2023-04-25T03:51:35;8.50;99.90
21602;DHT22;10963;50.934;4.668;2023-04-25T03:54:01;8.30;99.90
21602;DHT22;10963;50.934;4.668;2023-04-25T03:56:27;8.20;99.90
21602;DHT22;10963;50.934;4.668;2023-04-25T03:58:55;8.00;99.90
21602;DHT22;10963;50.934;4.668;2023-04-25T04:01:23;8.00;99.90
21602;DHT22;10963;50.934;4.668;2023-04-25T04:03:51;8.10;99.90
21602;DHT22;10963;50.934;4.668;2023-04-25T04:06:16;8.30;99.90
21602;DHT22;10963;50.934;4.668;2023-04-25T04:08:44;8.20;99.90
21602;DHT22;10963;50.934;4.668;2023-04-25T04:11:14;8.20;99.90
21602;DHT22;10963;50.934;4.668;2023-04-25T04:13:40;8.20;99.90
21602;DHT22;10963;50.934;4.668;2023-04-25T04:16:06;8.30;99.90
21602;DHT22;10963;50.934;4.668;2023-04-25T04:18:32;8.20;99.90
21602;DHT22;10963;50.934;4.668;2023-04-25T04:20:59;8.30;99.90
21602;DHT22;10963;50.934;4.668;2023-04-25T04:23:25;8.30;99.90
21602;DHT22;10963;50.934;4.668;2023-04-25T04:25:52;8.40;99.90
21602;DHT22;10963;50.934;4.668;2023-04-25T04:28:19;8.40;99.90
21602;DHT22;10963;50.934;4.668;2023-04-25T04:30:48;8.50;99.90
21602;DHT22;10963;50.934;4.668;2023-04-25T04:33:20;8.60;99.90
21602;DHT22;10963;50.934;4.668;2023-04-25T04:35:46;8.60;99.90
21602;DHT22;10963;50.934;4.668;2023-04-25T04:38:15;8.60;99.90
21602;DHT22;10963;50.934;4.668;2023-04-25T04:40:41;8.60;99.90
21602;DHT22;10963;50.934;4.668;2023-04-25T04:43:12;8.60;99.90
21602;DHT22;10963;50.934;4.668;2023-04-25T04:45:38;8.60;99.90
21602;DHT22;10963;50.934;4.668;2023-04-25T04:48:06;8.60;99.90
21602;DHT22;10963;50.934;4.668;2023-04-25T04:50:36;8.70;99.90
21602;DHT22;10963;50.934;4.668;2023-04-25T04:53:03;8.70;99.90
21602;DHT22;10963;50.934;4.668;2023-04-25T04:55:29;8.70;99.90
21602;DHT22;10963;50.934;4.668;2023-04-25T04:57:55;8.70;99.90
21602;DHT22;10963;50.934;4.668;2023-04-25T05:00:21;8.70;99.90
21602;DHT22;10963;50.934;4.668;2023-04-25T05:02:47;8.80;99.90
21602;DHT22;10963;50.934;4.668;2023-04-25T05:05:13;8.70;99.90
21602;DHT22;10963;50.934;4.668;2023-04-25T05:07:38;8.80;99.90
21602;DHT22;10963;50.934;4.668;2023-04-25T05:10:07;8.80;99.90
21602;DHT22;10963;50.934;4.668;2023-04-25T05:12:33;8.80;99.90
21602;DHT22;10963;50.934;4.668;2023-04-25T05:14:59;8.90;99.90
21602;DHT22;10963;50.934;4.668;2023-04-25T05:17:24;8.70;99.90
21602;DHT22;10963;50.934;4.668;2023-04-25T05:19:52;8.80;99.90
21602;DHT22;10963;50.934;4.668;2023-04-25T05:22:18;8.70;99.90
21602;DHT22;10963;50.934;4.668;2023-04-25T05:24:44;8.80;99.90
21602;DHT22;10963;50.934;4.668;2023-04-25T05:27:12;8.70;99.90
21602;DHT22;10963;50.934;4.668;2023-04-25T05:29:43;8.70;99.90
21602;DHT22;10963;50.934;4.668;2023-04-25T05:32:08;8.60;99.90
21602;DHT22;10963;50.934;4.668;2023-04-25T05:34:35;8.50;99.90
21602;DHT22;10963;50.934;4.668;2023-04-25T05:37:03;8.50;99.90
21602;DHT22;10963;50.934;4.668;2023-04-25T05:39:28;8.50;99.90
21602;DHT22;10963;50.934;4.668;2023-04-25T05:41:54;8.60;99.90
21602;DHT22;10963;50.934;4.668;2023-04-25T05:44:21;8.50;99.90
21602;DHT22;10963;50.934;4.668;2023-04-25T05:46:46;8.50;99.90
21602;DHT22;10963;50.934;4.668;2023-04-25T05:49:12;8.50;99.90
21602;DHT22;10963;50.934;4.668;2023-04-25T05:51:38;8.60;99.90
21602;DHT22;10963;50.934;4.668;2023-04-25T05:54:04;8.70;99.90
21602;DHT22;10963;50.934;4.668;2023-04-25T05:56:32;8.70;99.90
21602;DHT22;10963;50.934;4.668;2023-04-25T05:58:58;8.80;99.90
21602;DHT22;10963;50.934;4.668;2023-04-25T06:01:26;8.80;99.90
21602;DHT22;10963;50.934;4.668;2023-04-25T06:03:51;9.00;99.90
21602;DHT22;10963;50.934;4.668;2023-04-25T06:06:20;9.20;99.90
21602;DHT22;10963;50.934;4.668;2023-04-25T06:08:46;9.20;99.90
21602;DHT22;10963;50.934;4.668;2023-04-25T06:11:11;9.20;99.90
21602;DHT22;10963;50.934;4.668;2023-04-25T06:13:37;9.30;99.90
21602;DHT22;10963;50.934;4.668;2023-04-25T06:16:03;9.30;99.90
21602;DHT22;10963;50.934;4.668;2023-04-25T06:18:29;9.50;99.90
21602;DHT22;10963;50.934;4.668;2023-04-25T06:20:54;9.50;99.90
21602;DHT22;10963;50.934;4.668;2023-04-25T06:23:20;9.70;99.90
21602;DHT22;10963;50.934;4.668;2023-04-25T06:25:46;9.90;99.90
21602;DHT22;10963;50.934;4.668;2023-04-25T06:28:14;10.00;99.90
21602;DHT22;10963;50.934;4.668;2023-04-25T06:30:42;10.00;99.90
21602;DHT22;10963;50.934;4.668;2023-04-25T06:33:10;9.90;99.90
21602;DHT22;10963;50.934;4.668;2023-04-25T06:35:35;10.00;99.90
21602;DHT22;10963;50.934;4.668;2023-04-25T06:38:01;10.00;99.90
21602;DHT22;10963;50.934;4.668;2023-04-25T06:40:27;10.00;99.90
21602;DHT22;10963;50.934;4.668;2023-04-25T06:42:55;10.10;99.90
21602;DHT22;10963;50.934;4.668;2023-04-25T06:45:21;10.20;99.90
21602;DHT22;10963;50.934;4.668;2023-04-25T06:47:48;10.20;99.90
21602;DHT22;10963;50.934;4.668;2023-04-25T06:50:19;10.20;99.90
21602;DHT22;10963;50.934;4.668;2023-04-25T06:52:45;10.20;99.90
21602;DHT22;10963;50.934;4.668;2023-04-25T06:55:10;10.40;99.90
21602;DHT22;10963;50.934;4.668;2023-04-25T06:57:36;10.40;99.90
21602;DHT22;10963;50.934;4.668;2023-04-25T07:00:03;10.40;99.90
21602;DHT22;10963;50.934;4.668;2023-04-25T07:02:31;10.60;99.90
21602;DHT22;10963;50.934;4.668;2023-04-25T07:04:56;10.60;99.90
21602;DHT22;10963;50.934;4.668;2023-04-25T07:07:25;10.60;99.90
21602;DHT22;10963;50.934;4.668;2023-04-25T07:09:51;10.70;99.90
21602;DHT22;10963;50.934;4.668;2023-04-25T07:12:21;10.80;99.90
21602;DHT22;10963;50.934;4.668;2023-04-25T07:14:47;10.90;99.90
21602;DHT22;10963;50.934;4.668;2023-04-25T07:17:13;10.90;99.90
21602;DHT22;10963;50.934;4.668;2023-04-25T07:19:38;10.90;99.90
21602;DHT22;10963;50.934;4.668;2023-04-25T07:22:06;11.00;99.90
21602;DHT22;10963;50.934;4.668;2023-04-25T07:24:32;11.20;99.90
21602;DHT22;10963;50.934;4.668;2023-04-25T07:27:00;11.10;99.90
21602;DHT22;10963;50.934;4.668;2023-04-25T07:29:27;11.50;99.90
21602;DHT22;10963;50.934;4.668;2023-04-25T07:31:56;11.70;99.90
21602;DHT22;10963;50.934;4.668;2023-04-25T07:34:22;11.80;99.90
21602;DHT22;10963;50.934;4.668;2023-04-25T07:36:47;12.00;99.90
21602;DHT22;10963;50.934;4.668;2023-04-25T07:39:15;11.90;99.90
21602;DHT22;10963;50.934;4.668;2023-04-25T07:41:43;12.10;99.90
21602;DHT22;10963;50.934;4.668;2023-04-25T07:44:09;12.30;99.90
21602;DHT22;10963;50.934;4.668;2023-04-25T07:46:38;12.30;99.90
21602;DHT22;10963;50.934;4.668;2023-04-25T07:49:06;12.40;99.90
21602;DHT22;10963;50.934;4.668;2023-04-25T07:51:32;12.30;99.90
21602;DHT22;10963;50.934;4.668;2023-04-25T07:53:57;12.00;99.90
21602;DHT22;10963;50.934;4.668;2023-04-25T07:56:25;12.00;99.90
21602;DHT22;10963;50.934;4.668;2023-04-25T07:58:51;11.80;99.90
21602;DHT22;10963;50.934;4.668;2023-04-25T08:01:17;11.30;99.90
21602;DHT22;10963;50.934;4.668;2023-04-25T08:03:45;11.30;99.90
21602;DHT22;10963;50.934;4.668;2023-04-25T08:06:11;11.20;99.90
21602;DHT22;10963;50.934;4.668;2023-04-25T08:08:41;10.70;99.90
21602;DHT22;10963;50.934;4.668;2023-04-25T08:11:09;10.60;99.90
21602;DHT22;10963;50.934;4.668;2023-04-25T08:13:36;10.60;99.90
21602;DHT22;10963;50.934;4.668;2023-04-25T08:16:04;10.60;99.90
21602;DHT22;10963;50.934;4.668;2023-04-25T08:18:34;10.40;99.90
21602;DHT22;10963;50.934;4.668;2023-04-25T08:21:00;10.20;99.90
21602;DHT22;10963;50.934;4.668;2023-04-25T08:23:25;10.30;99.90
21602;DHT22;10963;50.934;4.668;2023-04-25T08:25:54;10.20;99.90
21602;DHT22;10963;50.934;4.668;2023-04-25T08:28:21;10.30;99.90
21602;DHT22;10963;50.934;4.668;2023-04-25T08:30:49;10.50;99.90
21602;DHT22;10963;50.934;4.668;2023-04-25T08:33:15;10.60;99.90
21602;DHT22;10963;50.934;4.668;2023-04-25T08:35:44;10.60;99.90
21602;DHT22;10963;50.934;4.668;2023-04-25T08:38:10;10.80;99.90
21602;DHT22;10963;50.934;4.668;2023-04-25T08:40:38;10.90;99.90
21602;DHT22;10963;50.934;4.668;2023-04-25T08:43:06;11.20;99.90
21602;DHT22;10963;50.934;4.668;2023-04-25T08:45:42;11.40;99.90
21602;DHT22;10963;50.934;4.668;2023-04-25T08:48:14;11.90;99.90
21602;DHT22;10963;50.934;4.668;2023-04-25T08:50:50;12.10;99.90
21602;DHT22;10963;50.934;4.668;2023-04-25T08:53:17;12.30;99.90
21602;DHT22;10963;50.934;4.668;2023-04-25T08:55:50;12.30;99.90
21602;DHT22;10963;50.934;4.668;2023-04-25T08:58:18;12.70;99.90
21602;DHT22;10963;50.934;4.668;2023-04-25T09:00:48;12.70;99.90
21602;DHT22;10963;50.934;4.668;2023-04-25T09:03:14;13.50;99.90
21602;DHT22;10963;50.934;4.668;2023-04-25T09:05:43;14.10;99.90
21602;DHT22;10963;50.934;4.668;2023-04-25T09:08:11;14.40;99.90
21602;DHT22;10963;50.934;4.668;2023-04-25T09:10:37;14.30;99.90
21602;DHT22;10963;50.934;4.668;2023-04-25T09:15:31;14.10;99.90
21602;DHT22;10963;50.934;4.668;2023-04-25T09:17:57;13.70;99.90
21602;DHT22;10963;50.934;4.668;2023-04-25T09:20:23;13.20;99.90
21602;DHT22;10963;50.934;4.668;2023-04-25T09:23:01;12.70;99.90
21602;DHT22;10963;50.934;4.668;2023-04-25T09:25:36;12.50;99.90
21602;DHT22;10963;50.934;4.668;2023-04-25T09:28:06;12.20;99.90
21602;DHT22;10963;50.934;4.668;2023-04-25T09:30:35;11.80;99.90
21602;DHT22;10963;50.934;4.668;2023-04-25T09:33:09;11.70;99.90
21602;DHT22;10963;50.934;4.668;2023-04-25T09:35:44;11.90;99.90
21602;DHT22;10963;50.934;4.668;2023-04-25T09:38:14;11.80;99.90
21602;DHT22;10963;50.934;4.668;2023-04-25T09:40:46;12.00;99.90
21602;DHT22;10963;50.934;4.668;2023-04-25T09:43:22;11.80;99.90
21602;DHT22;10963;50.934;4.668;2023-04-25T09:45:48;11.70;99.90
21602;DHT22;10963;50.934;4.668;2023-04-25T09:48:18;11.40;99.90
21602;DHT22;10963;50.934;4.668;2023-04-25T09:53:36;11.40;99.90
21602;DHT22;10963;50.934;4.668;2023-04-25T09:56:06;11.60;99.90
21602;DHT22;10963;50.934;4.668;2023-04-25T09:58:36;11.90;99.90
21602;DHT22;10963;50.934;4.668;2023-04-25T10:01:08;12.50;99.90
21602;DHT22;10963;50.934;4.668;2023-04-25T10:03:38;12.90;99.90
21602;DHT22;10963;50.934;4.668;2023-04-25T10:06:17;13.00;99.90
21602;DHT22;10963;50.934;4.668;2023-04-25T10:08:46;13.00;99.90
21602;DHT22;10963;50.934;4.668;2023-04-25T10:11:17;13.40;99.90
21602;DHT22;10963;50.934;4.668;2023-04-25T10:13:43;13.90;99.90
21602;DHT22;10963;50.934;4.668;2023-04-25T10:16:13;14.00;99.90
21602;DHT22;10963;50.934;4.668;2023-04-25T10:18:41;13.40;99.90
21602;DHT22;10963;50.934;4.668;2023-04-25T10:21:10;12.80;99.90
21602;DHT22;10963;50.934;4.668;2023-04-25T10:23:36;12.30;99.90
21602;DHT22;10963;50.934;4.668;2023-04-25T10:26:04;12.30;99.90
21602;DHT22;10963;50.934;4.668;2023-04-25T10:28:57;12.10;99.90
21602;DHT22;10963;50.934;4.668;2023-04-25T10:31:26;12.00;99.90
21602;DHT22;10963;50.934;4.668;2023-04-25T10:33:53;12.10;99.90
21602;DHT22;10963;50.934;4.668;2023-04-25T10:36:22;12.80;99.90
21602;DHT22;10963;50.934;4.668;2023-04-25T10:38:49;13.60;99.90
21602;DHT22;10963;50.934;4.668;2023-04-25T10:41:21;14.40;99.90
21602;DHT22;10963;50.934;4.668;2023-04-25T10:43:49;14.90;99.90
21602;DHT22;10963;50.934;4.668;2023-04-25T10:46:25;14.80;99.90
21602;DHT22;10963;50.934;4.668;2023-04-25T10:48:55;15.00;99.90
21602;DHT22;10963;50.934;4.668;2023-04-25T10:51:25;15.00;99.90
21602;DHT22;10963;50.934;4.668;2023-04-25T10:56:21;14.90;99.90
21602;DHT22;10963;50.934;4.668;2023-04-25T10:58:52;14.20;99.90
21602;DHT22;10963;50.934;4.668;2023-04-25T11:01:42;14.10;99.90
21602;DHT22;10963;50.934;4.668;2023-04-25T11:09:26;13.30;99.90
21602;DHT22;10963;50.934;4.668;2023-04-25T11:11:58;13.30;99.90
21602;DHT22;10963;50.934;4.668;2023-04-25T11:14:28;13.30;99.90
21602;DHT22;10963;50.934;4.668;2023-04-25T11:16:58;13.40;99.90
21602;DHT22;10963;50.934;4.668;2023-04-25T11:19:25;13.40;99.90
21602;DHT22;10963;50.934;4.668;2023-04-25T11:21:55;13.70;99.90
21602;DHT22;10963;50.934;4.668;2023-04-25T11:24:31;13.80;99.90
21602;DHT22;10963;50.934;4.668;2023-04-25T11:27:04;13.90;99.90
21602;DHT22;10963;50.934;4.668;2023-04-25T11:29:34;13.80;99.90
21602;DHT22;10963;50.934;4.668;2023-04-25T11:32:02;13.90;99.90
21602;DHT22;10963;50.934;4.668;2023-04-25T11:34:29;13.80;99.90
21602;DHT22;10963;50.934;4.668;2023-04-25T11:37:03;13.80;99.90
21602;DHT22;10963;50.934;4.668;2023-04-25T11:39:29;13.80;99.90
21602;DHT22;10963;50.934;4.668;2023-04-25T11:41:55;13.50;99.90
21602;DHT22;10963;50.934;4.668;2023-04-25T11:44:21;13.20;99.90
21602;DHT22;10963;50.934;4.668;2023-04-25T11:46:47;13.30;99.90
21602;DHT22;10963;50.934;4.668;2023-04-25T11:49:14;13.40;99.90
21602;DHT22;10963;50.934;4.668;2023-04-25T11:51:45;13.20;99.90
21602;DHT22;10963;50.934;4.668;2023-04-25T11:54:15;12.80;99.90
21602;DHT22;10963;50.934;4.668;2023-04-25T11:56:44;12.40;99.90
21602;DHT22;10963;50.934;4.668;2023-04-25T11:59:10;12.20;99.90
21602;DHT22;10963;50.934;4.668;2023-04-25T12:01:41;12.20;99.90
21602;DHT22;10963;50.934;4.668;2023-04-25T12:04:21;12.30;99.90
21602;DHT22;10963;50.934;4.668;2023-04-25T12:06:49;12.60;99.90
21602;DHT22;10963;50.934;4.668;2023-04-25T12:09:28;13.10;99.90
21602;DHT22;10963;50.934;4.668;2023-04-25T12:11:56;13.50;99.90
21602;DHT22;10963;50.934;4.668;2023-04-25T12:16:53;13.40;99.90
21602;DHT22;10963;50.934;4.668;2023-04-25T12:19:20;13.10;99.90
21602;DHT22;10963;50.934;4.668;2023-04-25T12:21:47;13.40;99.90
21602;DHT22;10963;50.934;4.668;2023-04-25T12:24:20;13.70;99.90
21602;DHT22;10963;50.934;4.668;2023-04-25T12:26:53;14.00;99.90
21602;DHT22;10963;50.934;4.668;2023-04-25T12:29:24;13.80;99.90
21602;DHT22;10963;50.934;4.668;2023-04-25T12:31:51;13.70;99.90
21602;DHT22;10963;50.934;4.668;2023-04-25T12:34:18;13.80;99.90
21602;DHT22;10963;50.934;4.668;2023-04-25T12:36:47;14.00;99.90
21602;DHT22;10963;50.934;4.668;2023-04-25T12:39:21;14.20;99.90
21602;DHT22;10963;50.934;4.668;2023-04-25T12:41:53;14.40;99.90
21602;DHT22;10963;50.934;4.668;2023-04-25T12:44:22;14.70;99.90
21602;DHT22;10963;50.934;4.668;2023-04-25T12:46:52;14.90;99.90
21602;DHT22;10963;50.934;4.668;2023-04-25T12:49:19;14.80;99.90
21602;DHT22;10963;50.934;4.668;2023-04-25T12:51:51;14.90;99.70
21602;DHT22;10963;50.934;4.668;2023-04-25T12:54:19;14.80;99.90
21602;DHT22;10963;50.934;4.668;2023-04-25T12:56:45;14.90;99.20
21602;DHT22;10963;50.934;4.668;2023-04-25T12:59:11;14.50;99.90
21602;DHT22;10963;50.934;4.668;2023-04-25T13:01:37;14.30;98.40
21602;DHT22;10963;50.934;4.668;2023-04-25T13:04:03;13.70;99.90
21602;DHT22;10963;50.934;4.668;2023-04-25T13:06:31;13.10;99.90
21602;DHT22;10963;50.934;4.668;2023-04-25T13:08:57;12.70;99.90
21602;DHT22;10963;50.934;4.668;2023-04-25T13:11:25;12.70;99.90
21602;DHT22;10963;50.934;4.668;2023-04-25T13:13:53;13.00;99.90
21602;DHT22;10963;50.934;4.668;2023-04-25T13:16:19;13.10;99.90
21602;DHT22;10963;50.934;4.668;2023-04-25T13:18:46;13.20;99.90
21602;DHT22;10963;50.934;4.668;2023-04-25T13:21:14;13.00;99.90
21602;DHT22;10963;50.934;4.668;2023-04-25T13:23:42;13.00;99.90
21602;DHT22;10963;50.934;4.668;2023-04-25T13:26:08;12.90;99.90
21602;DHT22;10963;50.934;4.668;2023-04-25T13:28:34;12.70;99.90
21602;DHT22;10963;50.934;4.668;2023-04-25T13:31:00;12.70;99.90
21602;DHT22;10963;50.934;4.668;2023-04-25T13:33:28;12.80;99.90
21602;DHT22;10963;50.934;4.668;2023-04-25T13:35:54;13.10;99.90
21602;DHT22;10963;50.934;4.668;2023-04-25T13:38:24;13.30;99.90
21602;DHT22;10963;50.934;4.668;2023-04-25T13:40:53;13.50;99.90
21602;DHT22;10963;50.934;4.668;2023-04-25T13:43:21;13.50;99.90
21602;DHT22;10963;50.934;4.668;2023-04-25T13:45:48;13.80;99.90
21602;DHT22;10963;50.934;4.668;2023-04-25T13:48:14;14.10;99.90
21602;DHT22;10963;50.934;4.668;2023-04-25T13:50:41;14.50;99.90
21602;DHT22;10963;50.934;4.668;2023-04-25T13:53:07;14.70;99.90
21602;DHT22;10963;50.934;4.668;2023-04-25T13:55:34;14.80;99.90
21602;DHT22;10963;50.934;4.668;2023-04-25T13:58:05;15.10;99.90
21602;DHT22;10963;50.934;4.668;2023-04-25T14:00:38;15.10;99.90
21602;DHT22;10963;50.934;4.668;2023-04-25T14:03:04;14.90;99.90
21602;DHT22;10963;50.934;4.668;2023-04-25T14:05:37;14.80;99.90
21602;DHT22;10963;50.934;4.668;2023-04-25T14:08:09;15.00;99.90
21602;DHT22;10963;50.934;4.668;2023-04-25T14:10:35;15.00;99.90
21602;DHT22;10963;50.934;4.668;2023-04-25T14:13:04;14.90;99.90
21602;DHT22;10963;50.934;4.668;2023-04-25T14:15:33;14.80;99.90
21602;DHT22;10963;50.934;4.668;2023-04-25T14:18:03;15.10;99.90
21602;DHT22;10963;50.934;4.668;2023-04-25T14:20:34;15.30;99.70
21602;DHT22;10963;50.934;4.668;2023-04-25T14:22:59;15.30;99.10
21602;DHT22;10963;50.934;4.668;2023-04-25T14:25:25;15.00;99.90
21602;DHT22;10963;50.934;4.668;2023-04-25T14:27:51;15.00;99.90
21602;DHT22;10963;50.934;4.668;2023-04-25T14:30:18;15.10;99.90
21602;DHT22;10963;50.934;4.668;2023-04-25T14:32:43;15.20;99.90
21602;DHT22;10963;50.934;4.668;2023-04-25T14:35:10;14.90;99.90
21602;DHT22;10963;50.934;4.668;2023-04-25T14:37:35;14.50;99.90
21602;DHT22;10963;50.934;4.668;2023-04-25T14:40:07;14.30;99.90
21602;DHT22;10963;50.934;4.668;2023-04-25T14:42:38;14.10;99.90
21602;DHT22;10963;50.934;4.668;2023-04-25T14:45:06;14.10;99.90
21602;DHT22;10963;50.934;4.668;2023-04-25T14:47:33;14.20;99.90
21602;DHT22;10963;50.934;4.668;2023-04-25T14:49:58;14.10;99.90
21602;DHT22;10963;50.934;4.668;2023-04-25T14:52:24;14.10;99.90
21602;DHT22;10963;50.934;4.668;2023-04-25T14:54:51;13.80;99.90
21602;DHT22;10963;50.934;4.668;2023-04-25T14:57:17;13.50;99.90
21602;DHT22;10963;50.934;4.668;2023-04-25T14:59:42;13.20;99.90
21602;DHT22;10963;50.934;4.668;2023-04-25T15:02:11;13.20;99.90
21602;DHT22;10963;50.934;4.668;2023-04-25T15:04:36;13.20;99.90
21602;DHT22;10963;50.934;4.668;2023-04-25T15:07:02;13.30;99.90
21602;DHT22;10963;50.934;4.668;2023-04-25T15:09:29;13.10;99.90
21602;DHT22;10963;50.934;4.668;2023-04-25T15:11:55;13.00;99.90
21602;DHT22;10963;50.934;4.668;2023-04-25T15:14:21;13.20;99.90
21602;DHT22;10963;50.934;4.668;2023-04-25T15:16:49;13.20;99.90
21602;DHT22;10963;50.934;4.668;2023-04-25T15:19:15;13.10;99.90
21602;DHT22;10963;50.934;4.668;2023-04-25T15:21:41;13.00;99.90
21602;DHT22;10963;50.934;4.668;2023-04-25T15:24:07;12.80;99.90
21602;DHT22;10963;50.934;4.668;2023-04-25T15:26:35;12.80;99.90
21602;DHT22;10963;50.934;4.668;2023-04-25T15:29:03;12.70;99.90
21602;DHT22;10963;50.934;4.668;2023-04-25T15:31:29;12.70;99.90
21602;DHT22;10963;50.934;4.668;2023-04-25T15:33:54;12.90;99.90
21602;DHT22;10963;50.934;4.668;2023-04-25T15:36:22;13.00;99.90
21602;DHT22;10963;50.934;4.668;2023-04-25T15:38:50;13.00;99.90
21602;DHT22;10963;50.934;4.668;2023-04-25T15:41:19;12.90;99.90
21602;DHT22;10963;50.934;4.668;2023-04-25T15:43:47;12.90;99.90
21602;DHT22;10963;50.934;4.668;2023-04-25T15:46:15;12.80;99.90
21602;DHT22;10963;50.934;4.668;2023-04-25T15:48:41;12.60;99.90
21602;DHT22;10963;50.934;4.668;2023-04-25T15:51:09;12.70;99.90
21602;DHT22;10963;50.934;4.668;2023-04-25T15:53:35;12.70;99.90